• Join FlightAware (Why Join?)
  • Login
  • US Flag 
07:18AM EDT


 

Airport Tracker/Info


-or-


 

Live Flight TrackerFlight Track Log ✈ SWA1841 ✈ 16-Apr-2013 ✈ KHOU - KECP

Flight Track Log - Related Links

Times and Time Zones

All times are in EDT time to prevent confusion due to time zone crossing. See the SWA1841 flight status page for this flight to view local times or setup timezone preferences in your user account.

Time Position Orientation Groundspeed Altitude Reporting Facility
EDT Latitude Longitude Course Direction KTS MPH feet Rate Location/Type
08:31PM 29.6117 -95.2542 157° South 172 198 2,300  Level Houston Center
08:32PM 29.5769 -95.2056 129° Southeast 228 262 5,400 3,240 Climbing Houston Center
08:34PM 29.5908 -95.1228 79° East 280 322 9,000 3,360 Climbing Houston Center
08:35PM 29.6111 -95.0072 79° East 314 361 12,300 3,240 Climbing Houston Center
08:36PM 29.6294 -94.8989 79° East 343 395 15,700 3,180 Climbing Houston Center
08:37PM 29.6489 -94.7822 79° East 367 422 18,900 3,000 Climbing Houston Center
08:38PM 29.6689 -94.6611 79° East 384 442 22,000 2,700 Climbing Houston Center
08:39PM 29.6889 -94.5322 80° East 405 466 24,500 2,280 Climbing Houston Center
08:40PM 29.7106 -94.3986 79° East 424 488 26,700 1,920 Climbing Houston Center
08:41PM 29.7078 -94.2256 91° East 461 531 28,500 1,680 Climbing Houston Center
08:42PM 29.6903 -94.0778 98° East 467 537 30,200 1,560 Climbing Houston Center
08:43PM 29.6844 -93.9214 92° East 488 562 31,800 1,740 Climbing Houston Center
08:44PM 29.6844 -93.7608 90° East 501 577 33,800 1,920 Climbing Houston Center
08:45PM 29.6833 -93.6056 90° East 490 564 35,800 1,680 Climbing Houston Center
08:46PM 29.6789 -93.4489 92° East 492 566 37,300 1,260 Climbing Houston Center
08:47PM 29.6778 -93.2914 90° East 494 568 38,400 780 Climbing Houston Center
08:48PM 29.6736 -93.1194 92° East 498 573 39,000 240 Climbing Houston Center
08:49PM 29.6733 -92.9597 90° East 500 575 39,000  Level Houston Center
08:50PM 29.6778 -92.7678 88° East 506 582 39,000  Level Houston Center
08:51PM 29.7175 -92.6100 74° East 516 594 39,000  Level Houston Center
08:52PM 29.7567 -92.4561 74° East 513 590 39,000  Level Houston Center
08:53PM 29.7961 -92.2975 74° East 512 589 39,000  Level Houston Center
08:54PM 29.8356 -92.1422 74° East 510 587 39,000  Level Houston Center
08:55PM 29.8753 -91.9850 74° East 512 589 39,000  Level Houston Center
08:56PM 29.9142 -91.8286 74° East 511 588 39,000  Level Houston Center
08:57PM 29.9547 -91.6689 74° East 510 587 39,000 -60 Level Houston Center
08:58PM 29.9936 -91.5128 74° East 508 585 38,900  Descending Houston Center
08:59PM 30.0400 -91.3247 74° East 510 587 39,000  Climbing Houston Center
09:00PM 30.0781 -91.1681 74° East 508 585 39,000 -60 Level Houston Center
09:01PM 30.1167 -91.0117 74° East 507 583 38,900 -60 Descending Houston Center
09:02PM 30.1542 -90.8550 74° East 509 586 38,900  Level Houston Center
09:03PM 30.1914 -90.6978 75° East 508 585 39,000  Climbing Houston Center
09:04PM 30.2286 -90.5419 75° East 507 583 38,900 -60 Descending Houston Center
09:05PM 30.2667 -90.3839 74° East 509 586 38,900  Level Houston Center
09:06PM 30.3028 -90.2256 75° East 509 586 38,900  Level Houston Center
09:07PM 30.3481 -90.0344 75° East 512 589 38,900  Level Houston Center
09:08PM 30.3844 -89.8736 75° East 513 590 39,000  Climbing Houston Center
09:09PM 30.4231 -89.7139 74° East 516 594 39,000 -60 Level Houston Center
09:10PM 30.4542 -89.5719 76° East 517 595 38,900 -60 Descending Houston Center
09:11PM 30.4983 -89.3822 75° East 508 585 38,900  Level Houston Center
09:13PM 30.5325 -89.2231 76° East 512 589 38,900  Level Houston Center
09:14PM 30.5678 -89.0653 75° East 508 585 38,900  Level Houston Center
09:15PM 30.5994 -88.9217 76° East 507 583 39,000  Climbing Houston Center
09:16PM 30.6347 -88.7633 75° East 508 585 39,000 -540 Level Houston Center
09:17PM 30.6769 -88.5744 75° East 509 586 38,000 -1,380 Descending Houston Center
09:18PM 30.7081 -88.4306 76° East 510 587 36,300 -1,500 Descending Houston Center
09:19PM 30.7303 -88.2700 81° East 505 581 35,000 -1,620 Descending Houston Center
09:20PM 30.7403 -88.1083 86° East 502 578 33,100 -2,820 Descending Houston Center
09:21PM 30.7531 -87.9219 85° East 485 558 29,300 -3,420 Descending Houston Center
09:22PM 30.7619 -87.7658 86° East 490 564 25,800 -2,040 Descending Jacksonville Center
09:23PM 30.7714 -87.6236 86° East 459 528 25,000 -540 Descending Jacksonville Center
09:24PM 30.7808 -87.4792 86° East 447 514 24,800 -600 Descending Jacksonville Center
09:25PM 30.7900 -87.3394 86° East 435 501 23,800 -1,020 Descending Jacksonville Center
09:26PM 30.7989 -87.2019 86° East 430 495 22,800 -1,020 Descending Jacksonville Center
09:27PM 30.8056 -87.0694 87° East 420 483 21,800 -1,260 Descending Jacksonville Center
09:28PM 30.8139 -86.9392 86° East 408 470 20,300 -1,800 Descending Jacksonville Center
09:29PM 30.8242 -86.8161 84° East 398 458 18,300 -2,040 Descending Jacksonville Center
09:30PM 30.8297 -86.6956 87° East 379 436 16,300 -2,100 Descending Jacksonville Center
09:31PM 30.8211 -86.5622 94° East 379 436 14,100 -2,100 Descending Jacksonville Center
09:32PM 30.8203 -86.4461 90° East 368 423 12,100 -1,740 Descending Jacksonville Center
09:33PM 30.7706 -86.3547 122° Southeast 329 379 10,700 -1,140 Descending Jacksonville Center
09:34PM 30.7183 -86.2828 130° Southeast 313 360 9,900 -1,140 Descending Jacksonville Center
09:35PM 30.6742 -86.2111 126° Southeast 291 335 8,500 -1,500 Descending Jacksonville Center
09:36PM 30.6303 -86.1372 125° Southeast 280 322 6,900 -1,380 Descending Jacksonville Center
09:37PM 30.5903 -86.0633 122° Southeast 275 316 5,800 -1,140 Descending Jacksonville Center
09:39PM 30.4783 -85.8703 153° Southeast  Level FlightAware Approximate
09:46PM 30.3582 -85.7956 147° Southeast  Level Estimated
09:47PM 30.3582 -85.7956 147° Southeast  Level Estimated
09:48PM 30.3582 -85.7956 147° Southeast  Level Estimated
09:49PM 30.3582 -85.7956 147° Southeast  Level Estimated
09:50PM 30.3582 -85.7956 147° Southeast  Level Estimated
09:51PM 30.3582 -85.7956 147° Southeast  Level Estimated